createdAt,value
2018-10-16T00:00:21.617Z,19.63
2018-10-16T00:03:04.392Z,12.83
2018-10-16T00:05:46.694Z,15.07
2018-10-16T00:08:28.559Z,11.43
2018-10-16T00:11:11.088Z,15.50
2018-10-16T00:13:53.142Z,13.77
2018-10-16T00:16:35.112Z,18.53
2018-10-16T00:19:16.603Z,13.57
2018-10-16T00:21:58.315Z,14.10
2018-10-16T00:24:40.110Z,15.03
2018-10-16T00:27:22.335Z,10.97
2018-10-16T00:30:04.951Z,12.40
2018-10-16T00:32:47.133Z,15.50
2018-10-16T00:35:29.035Z,17.33
2018-10-16T00:38:10.823Z,16.60
2018-10-16T00:40:52.387Z,13.03
2018-10-16T00:43:34.592Z,15.20
2018-10-16T00:46:16.546Z,12.70
2018-10-16T00:48:58.479Z,14.53
2018-10-16T00:51:41.051Z,13.00
2018-10-16T00:54:23.770Z,18.27
2018-10-16T00:57:06.519Z,14.67
2018-10-16T00:59:48.578Z,13.73
2018-10-16T01:02:30.036Z,13.07
2018-10-16T01:05:12.520Z,14.33
2018-10-16T01:07:54.475Z,11.40
2018-10-16T01:10:36.767Z,12.00
2018-10-16T01:13:18.831Z,11.37
2018-10-16T01:18:42.896Z,12.70
2018-10-16T01:21:24.842Z,13.80
2018-10-16T01:24:07.758Z,12.67
2018-10-16T01:26:50.059Z,12.40
2018-10-16T01:29:32.985Z,11.50
2018-10-16T01:32:14.910Z,14.77
2018-10-16T01:34:56.438Z,16.10
2018-10-16T01:37:39.449Z,19.60
2018-10-16T01:40:21.195Z,15.83
2018-10-16T01:43:02.769Z,16.33
2018-10-16T01:45:44.806Z,16.83
2018-10-16T01:48:27.650Z,11.47
2018-10-16T01:51:10.304Z,16.20
2018-10-16T01:53:52.499Z,15.30
2018-10-16T01:56:34.493Z,16.73
2018-10-16T01:59:15.894Z,12.47
2018-10-16T02:01:58.088Z,14.17
2018-10-16T02:04:39.748Z,12.63
2018-10-16T02:07:21.713Z,13.40
2018-10-16T02:10:04.051Z,12.90
2018-10-16T02:12:45.868Z,17.20
2018-10-16T02:15:28.131Z,16.57
2018-10-16T02:18:10.139Z,14.47
2018-10-16T02:20:51.946Z,17.07
2018-10-16T02:23:33.815Z,14.60
2018-10-16T02:26:15.490Z,15.73
2018-10-16T02:28:57.976Z,13.37
2018-10-16T02:31:40.171Z,12.90
2018-10-16T02:34:21.911Z,14.57
2018-10-16T02:37:04.260Z,15.10
2018-10-16T02:39:45.749Z,16.57
2018-10-16T02:42:27.808Z,12.97
2018-10-16T02:45:10.992Z,13.37
2018-10-16T02:47:52.391Z,18.10
2018-10-16T02:50:34.245Z,13.10
2018-10-16T02:53:15.663Z,12.03
2018-10-16T02:55:57.158Z,13.77
2018-10-16T02:58:39.192Z,13.80
2018-10-16T03:01:21.268Z,12.03
2018-10-16T03:04:02.775Z,13.53
2018-10-16T03:06:44.581Z,14.07
2018-10-16T03:09:26.062Z,14.87
2018-10-16T03:12:08.261Z,16.27
2018-10-16T03:14:50.408Z,13.70
2018-10-16T03:17:32.496Z,13.97
2018-10-16T03:20:14.374Z,14.57
2018-10-16T03:22:56.390Z,13.40
2018-10-16T03:25:39.383Z,12.50
2018-10-16T03:28:21.307Z,12.53
2018-10-16T03:31:03.234Z,13.53
2018-10-16T03:33:45.244Z,14.80
2018-10-16T03:36:27.201Z,13.43
2018-10-16T03:39:10.914Z,11.70
2018-10-16T03:41:53.026Z,12.97
2018-10-16T03:44:34.738Z,12.57
2018-10-16T03:47:16.860Z,13.47
2018-10-16T03:49:59.123Z,18.57
2018-10-16T03:52:41.299Z,16.67
2018-10-16T03:55:23.206Z,14.13
2018-10-16T03:58:05.807Z,17.07
2018-10-16T04:00:47.654Z,13.13
2018-10-16T04:03:29.833Z,12.30
2018-10-16T04:06:11.729Z,12.27
2018-10-16T04:08:53.975Z,16.33
2018-10-16T04:11:35.844Z,15.00
2018-10-16T04:14:17.235Z,13.47
2018-10-16T04:17:00.293Z,10.17
2018-10-16T04:19:41.747Z,15.47
2018-10-16T04:22:23.740Z,12.43
2018-10-16T04:25:05.695Z,16.67
2018-10-16T04:27:47.408Z,19.57
2018-10-16T04:30:29.234Z,16.73
2018-10-16T04:33:11.609Z,16.43
2018-10-16T04:35:53.435Z,13.03
2018-10-16T04:38:34.943Z,17.23
2018-10-16T04:41:16.452Z,14.43
2018-10-16T04:43:58.349Z,17.93
2018-10-16T04:46:40.244Z,12.80
2018-10-16T04:49:21.767Z,18.27
2018-10-16T04:52:03.534Z,14.87
2018-10-16T04:54:45.254Z,17.33
2018-10-16T04:57:26.799Z,16.27
2018-10-16T05:00:09.248Z,20.97
2018-10-16T05:02:51.020Z,15.57
2018-10-16T05:05:33.282Z,13.23
2018-10-16T05:08:15.029Z,19.23
2018-10-16T05:10:57.015Z,13.40
2018-10-16T05:13:39.549Z,14.00
2018-10-16T05:16:21.849Z,15.23
2018-10-16T05:19:04.127Z,14.70
2018-10-16T05:21:45.672Z,16.03
2018-10-16T05:24:27.447Z,12.83
2018-10-16T05:27:09.232Z,16.47
2018-10-16T05:29:50.776Z,25.60
2018-10-16T05:32:32.280Z,15.50
2018-10-16T05:35:13.868Z,14.03
2018-10-16T05:37:55.401Z,12.70
2018-10-16T05:40:37.259Z,27.00
2018-10-16T05:43:19.006Z,23.90
2018-10-16T05:46:00.939Z,18.10
2018-10-16T05:48:43.060Z,12.40
2018-10-16T05:51:24.781Z,13.50
2018-10-16T05:54:06.725Z,17.80
2018-10-16T05:56:48.995Z,14.73
2018-10-16T05:59:30.412Z,14.37
2018-10-16T06:02:12.162Z,13.17
2018-10-16T06:04:53.832Z,16.40
2018-10-16T06:07:35.400Z,13.70
2018-10-16T06:10:17.397Z,17.33
2018-10-16T06:12:59.108Z,12.63
2018-10-16T06:15:41.231Z,17.57
2018-10-16T06:18:23.092Z,17.37
2018-10-16T06:21:05.347Z,18.47
2018-10-16T06:23:47.218Z,17.57
2018-10-16T06:26:28.988Z,16.87
2018-10-16T06:29:10.551Z,17.60
2018-10-16T06:31:53.305Z,21.13
2018-10-16T06:34:35.057Z,17.70
2018-10-16T06:37:16.750Z,18.70
2018-10-16T06:39:58.679Z,15.77
2018-10-16T06:42:40.503Z,20.47
2018-10-16T06:45:22.956Z,20.37
2018-10-16T06:48:05.887Z,16.37
2018-10-16T06:50:47.739Z,21.40
2018-10-16T06:53:29.664Z,20.03
2018-10-16T06:56:11.389Z,21.23
2018-10-16T07:05:40.245Z,20.80
2018-10-16T07:08:22.967Z,16.37
2018-10-16T07:11:04.964Z,17.93
2018-10-16T07:13:46.850Z,17.83
2018-10-16T07:16:28.384Z,15.87
2018-10-16T07:19:10.991Z,15.00
2018-10-16T07:21:52.706Z,17.37
2018-10-16T07:24:34.236Z,17.23
2018-10-16T07:27:15.747Z,16.43
2018-10-16T07:29:57.472Z,20.37
2018-10-16T07:32:39.495Z,13.73
2018-10-16T07:35:21.314Z,15.60
2018-10-16T07:38:03.492Z,16.10
2018-10-16T07:40:45.049Z,16.80
2018-10-16T07:43:27.100Z,15.53
2018-10-16T07:46:09.378Z,20.33
2018-10-16T07:48:51.653Z,13.93
2018-10-16T07:51:33.523Z,14.90
2018-10-16T07:54:15.041Z,24.73
2018-10-16T07:56:56.869Z,14.27
2018-10-16T07:59:38.467Z,17.33
2018-10-16T08:02:19.959Z,15.50
2018-10-16T08:05:03.095Z,12.90
2018-10-16T08:07:44.919Z,10.70
2018-10-16T08:10:27.608Z,11.80
2018-10-16T08:13:10.344Z,15.33
2018-10-16T08:15:53.638Z,18.93
2018-10-16T08:18:36.044Z,20.07
2018-10-16T08:21:17.755Z,17.20
2018-10-16T08:23:59.596Z,16.97
2018-10-16T08:26:41.532Z,17.13
2018-10-16T08:29:24.480Z,16.00
2018-10-16T08:32:06.346Z,17.07
2018-10-16T08:34:48.579Z,16.73
2018-10-16T08:39:47.973Z,15.93
2018-10-16T08:43:45.330Z,20.90
2018-10-16T08:46:43.988Z,18.20
2018-10-16T08:49:42.625Z,13.10
2018-10-16T08:52:24.136Z,13.67
2018-10-16T08:55:06.189Z,12.37
2018-10-16T08:57:48.634Z,15.37
2018-10-16T09:00:30.332Z,13.53
2018-10-16T09:03:12.091Z,17.80
2018-10-16T09:05:54.092Z,16.47
2018-10-16T09:08:36.387Z,19.20
2018-10-16T09:11:17.807Z,17.20
2018-10-16T09:14:00.280Z,14.40
2018-10-16T09:16:41.959Z,15.80
2018-10-16T09:19:23.746Z,16.90
2018-10-16T09:22:06.294Z,14.90
2018-10-16T09:24:48.791Z,17.70
2018-10-16T09:27:30.880Z,12.87
2018-10-16T09:30:14.047Z,21.17
2018-10-16T09:32:56.245Z,25.10
2018-10-16T09:35:37.811Z,16.77
2018-10-16T09:38:19.324Z,17.70
2018-10-16T09:41:01.579Z,14.93
2018-10-16T09:43:43.815Z,13.83
2018-10-16T09:46:25.181Z,17.77
2018-10-16T09:49:07.106Z,16.67
2018-10-16T09:51:48.864Z,17.00
2018-10-16T09:54:30.439Z,15.37
2018-10-16T09:57:11.963Z,12.97
2018-10-16T09:59:54.238Z,15.93
2018-10-16T10:02:36.350Z,15.60
2018-10-16T10:05:18.633Z,16.60
2018-10-16T10:08:00.714Z,14.40
2018-10-16T10:10:43.055Z,15.40
2018-10-16T10:13:24.437Z,16.63
2018-10-16T10:16:07.424Z,13.87
2018-10-16T10:18:50.240Z,12.40
2018-10-16T10:21:32.233Z,19.67
2018-10-16T10:24:14.356Z,17.60
2018-10-16T10:26:56.017Z,15.20
2018-10-16T10:29:38.395Z,12.70
2018-10-16T10:32:20.385Z,13.33
2018-10-16T10:35:02.872Z,14.03
2018-10-16T10:37:45.664Z,13.60
2018-10-16T10:40:27.881Z,12.43
2018-10-16T10:43:10.095Z,13.00
2018-10-16T10:45:52.798Z,16.93
2018-10-16T10:48:34.438Z,15.37
2018-10-16T10:51:16.412Z,15.80
2018-10-16T10:53:59.072Z,19.23
2018-10-16T10:56:41.301Z,14.23
2018-10-16T10:59:23.209Z,14.90
2018-10-16T11:02:05.552Z,11.53
2018-10-16T11:04:47.787Z,13.43
2018-10-16T11:07:29.656Z,18.27
2018-10-16T11:10:12.765Z,14.97
2018-10-16T11:12:54.780Z,14.80
2018-10-16T11:15:36.166Z,17.70
2018-10-16T11:18:17.631Z,14.70
2018-10-16T11:20:59.910Z,15.63
2018-10-16T11:23:41.835Z,11.30
2018-10-16T11:26:23.610Z,15.20
2018-10-16T11:29:05.611Z,13.27
2018-10-16T11:31:46.998Z,13.70
2018-10-16T11:34:28.585Z,17.07
2018-10-16T11:37:10.187Z,14.93
2018-10-16T11:39:52.359Z,13.47
2018-10-16T11:42:33.947Z,14.60
2018-10-16T11:45:16.155Z,14.07
2018-10-16T11:47:58.303Z,12.90
2018-10-16T11:50:40.153Z,14.77
2018-10-16T11:53:21.880Z,14.73
2018-10-16T11:56:04.224Z,11.57
2018-10-16T11:58:46.256Z,12.93
2018-10-16T12:01:28.660Z,10.53
2018-10-16T12:04:10.772Z,14.00
2018-10-16T12:06:52.231Z,11.97
2018-10-16T12:09:34.145Z,13.07
2018-10-16T12:12:16.139Z,13.67
2018-10-16T12:14:58.299Z,10.97
2018-10-16T12:17:45.667Z,13.70
2018-10-16T12:20:32.180Z,10.67
2018-10-16T12:23:14.024Z,13.80
2018-10-16T12:25:56.270Z,11.03
2018-10-16T12:28:37.583Z,14.10
2018-10-16T12:31:19.871Z,15.93
2018-10-16T12:34:01.991Z,11.43
2018-10-16T12:36:43.703Z,11.23
2018-10-16T12:39:25.584Z,12.73
2018-10-16T12:42:07.524Z,18.00
2018-10-16T12:44:49.085Z,15.97
2018-10-16T12:47:30.959Z,11.97
2018-10-16T12:50:12.764Z,15.70
2018-10-16T12:52:54.475Z,12.00
2018-10-16T12:55:36.472Z,10.13
2018-10-16T12:58:18.225Z,12.50
2018-10-16T13:00:59.666Z,14.07
2018-10-16T13:03:41.186Z,15.03
2018-10-16T13:06:23.337Z,15.53
2018-10-16T13:09:07.921Z,15.07
2018-10-16T13:11:49.947Z,16.30
2018-10-16T13:14:31.905Z,16.73
2018-10-16T13:20:05.964Z,15.47
2018-10-16T13:22:48.960Z,11.43
2018-10-16T13:25:31.006Z,14.20
2018-10-16T13:28:13.118Z,15.27
2018-10-16T13:30:54.838Z,11.77
2018-10-16T13:33:37.149Z,11.57
2018-10-16T13:36:21.783Z,15.73
2018-10-16T13:39:07.704Z,13.07
2018-10-16T13:41:49.926Z,12.83
2018-10-16T13:44:31.620Z,11.13
2018-10-16T13:47:13.405Z,15.60
2018-10-16T13:49:55.195Z,14.47
2018-10-16T13:52:37.690Z,13.57
2018-10-16T13:55:20.672Z,16.03
2018-10-16T13:58:02.169Z,15.53
2018-10-16T14:00:44.096Z,12.57
2018-10-16T14:03:26.057Z,14.20
2018-10-16T14:06:07.888Z,13.00
2018-10-16T14:08:49.763Z,17.03
2018-10-16T14:11:31.680Z,15.47
2018-10-16T14:14:13.297Z,12.40
2018-10-16T14:16:55.377Z,14.60
2018-10-16T14:19:37.557Z,18.70
2018-10-16T14:22:19.149Z,18.33
2018-10-16T14:25:00.701Z,15.10
2018-10-16T14:27:42.797Z,17.63
2018-10-16T14:30:24.348Z,13.30
2018-10-16T14:33:08.661Z,17.23
2018-10-16T14:35:50.478Z,28.10
2018-10-16T14:38:31.879Z,10.97
2018-10-16T14:41:14.039Z,15.30
2018-10-16T14:43:56.267Z,15.00
2018-10-16T14:46:38.267Z,13.57
2018-10-16T14:49:20.199Z,12.90
2018-10-16T14:52:02.320Z,18.77
2018-10-16T14:54:44.721Z,13.33
2018-10-16T14:57:26.345Z,15.23
2018-10-16T15:00:10.692Z,17.67
2018-10-16T15:02:52.751Z,12.60
2018-10-16T15:05:34.500Z,13.63
2018-10-16T15:08:16.064Z,21.13
2018-10-16T15:10:58.323Z,14.17
2018-10-16T15:13:40.001Z,14.73
2018-10-16T15:16:21.763Z,18.50
2018-10-16T15:19:03.765Z,18.10
2018-10-16T15:21:45.729Z,18.67
2018-10-16T15:24:27.786Z,15.63
2018-10-16T15:27:09.689Z,15.33
2018-10-16T15:29:51.419Z,14.97
2018-10-16T15:32:33.431Z,22.97
2018-10-16T15:35:14.923Z,17.07
2018-10-16T15:37:56.283Z,20.57
2018-10-16T15:40:38.087Z,19.50
2018-10-16T15:43:19.946Z,15.97
2018-10-16T15:46:01.961Z,17.23
2018-10-16T15:48:44.349Z,17.53
2018-10-16T15:51:26.310Z,19.00
2018-10-16T15:54:07.883Z,16.10
2018-10-16T15:56:49.836Z,15.40
2018-10-16T15:59:31.293Z,14.17
2018-10-16T16:02:13.251Z,14.70
2018-10-16T16:04:54.911Z,15.23
2018-10-16T16:07:36.831Z,18.33
2018-10-16T16:10:18.745Z,19.53
2018-10-16T16:13:04.880Z,20.77
2018-10-16T16:15:47.219Z,21.53
2018-10-16T16:18:29.238Z,19.73
2018-10-16T16:21:11.468Z,22.23
2018-10-16T16:23:53.668Z,20.80
2018-10-16T16:26:35.717Z,20.60
2018-10-16T16:29:17.536Z,20.47
2018-10-16T16:31:59.463Z,21.53
2018-10-16T16:34:41.550Z,23.90
2018-10-16T16:37:23.482Z,27.20
2018-10-16T16:40:08.834Z,27.73
2018-10-16T16:42:52.028Z,26.37
2018-10-16T16:45:34.798Z,24.93
2018-10-16T16:48:16.602Z,22.77
2018-10-16T16:50:58.499Z,23.97
2018-10-16T16:53:41.110Z,22.07
2018-10-16T16:56:28.623Z,27.83
2018-10-16T16:59:10.338Z,24.73
2018-10-16T17:01:52.343Z,28.47
2018-10-16T17:04:34.309Z,24.53
2018-10-16T17:07:16.293Z,32.17
2018-10-16T17:09:58.078Z,25.17
2018-10-16T17:12:41.068Z,27.03
2018-10-16T17:15:22.448Z,25.00
2018-10-16T17:18:05.062Z,27.40
2018-10-16T17:20:46.707Z,38.73
2018-10-16T17:23:28.441Z,25.00
2018-10-16T17:26:10.607Z,36.30
2018-10-16T17:28:52.806Z,25.77
2018-10-16T17:31:35.006Z,27.23
2018-10-16T17:34:17.150Z,27.83
2018-10-16T17:36:59.207Z,26.07
2018-10-16T17:39:40.820Z,26.77
2018-10-16T17:42:23.077Z,31.67
2018-10-16T17:45:05.244Z,24.43
2018-10-16T17:47:47.497Z,23.03
2018-10-16T17:50:29.817Z,23.80
2018-10-16T17:53:11.430Z,30.27
2018-10-16T17:55:54.568Z,25.47
2018-10-16T17:58:36.053Z,28.33
2018-10-16T18:01:17.636Z,25.67
2018-10-16T18:03:59.332Z,30.00
2018-10-16T18:06:41.196Z,28.17
2018-10-16T18:09:22.756Z,26.57
2018-10-16T18:12:04.444Z,31.23
2018-10-16T18:14:46.343Z,22.17
2018-10-16T18:17:28.462Z,29.47
2018-10-16T18:20:14.025Z,25.37
2018-10-16T18:22:56.337Z,29.00
2018-10-16T18:25:38.840Z,23.57
2018-10-16T18:28:21.001Z,24.40
2018-10-16T18:31:03.145Z,28.73
2018-10-16T18:33:44.571Z,25.90
2018-10-16T18:36:27.871Z,28.40
2018-10-16T18:39:09.826Z,27.93
2018-10-16T18:41:51.882Z,26.07
2018-10-16T18:44:34.358Z,27.17
2018-10-16T18:47:16.293Z,26.63
2018-10-16T18:49:57.715Z,25.30
2018-10-16T18:52:39.575Z,29.90
2018-10-16T18:55:21.667Z,29.10
2018-10-16T18:58:03.858Z,25.15
2018-10-16T19:00:46.920Z,24.60
2018-10-16T19:03:28.688Z,29.67
2018-10-16T19:06:10.637Z,26.23
2018-10-16T19:08:52.046Z,27.10
2018-10-16T19:11:34.543Z,23.87
2018-10-16T19:14:17.803Z,27.87
2018-10-16T19:17:01.211Z,25.12
2018-10-16T19:19:43.534Z,25.60
2018-10-16T19:22:25.465Z,29.00
2018-10-16T19:25:09.027Z,29.17
2018-10-16T19:27:50.532Z,28.93
2018-10-16T19:30:33.103Z,30.77
2018-10-16T19:33:15.715Z,47.10
2018-10-16T19:35:58.091Z,32.87
2018-10-16T19:38:39.878Z,35.20
2018-10-16T19:41:21.250Z,30.30
2018-10-16T19:44:03.886Z,30.43
2018-10-16T19:46:45.425Z,29.97
2018-10-16T19:49:27.055Z,34.30
2018-10-16T19:52:09.487Z,31.37
2018-10-16T19:54:51.676Z,28.33
2018-10-16T19:57:33.915Z,35.90
2018-10-16T20:00:15.633Z,31.17
2018-10-16T20:02:57.551Z,34.53
2018-10-16T20:05:38.924Z,35.67
2018-10-16T20:08:21.169Z,29.98
2018-10-16T20:11:02.974Z,33.23
2018-10-16T20:13:45.240Z,33.60
2018-10-16T20:16:27.043Z,32.60
2018-10-16T20:19:08.609Z,35.43
2018-10-16T20:21:50.372Z,32.67
2018-10-16T20:24:32.114Z,31.70
2018-10-16T20:27:13.818Z,29.35
2018-10-16T20:29:56.434Z,28.02
2018-10-16T20:32:38.677Z,29.25
2018-10-16T20:35:20.822Z,31.33
2018-10-16T20:38:02.708Z,25.73
2018-10-16T20:40:45.268Z,28.20
2018-10-16T20:43:27.553Z,33.20
2018-10-16T20:46:09.731Z,29.95
2018-10-16T20:48:51.538Z,31.93
2018-10-16T20:51:34.230Z,35.10
2018-10-16T20:54:16.587Z,34.63
2018-10-16T20:56:58.456Z,27.50
2018-10-16T20:59:42.729Z,30.37
2018-10-16T21:02:25.084Z,35.63
2018-10-16T21:05:08.013Z,33.00
2018-10-16T21:07:49.531Z,30.27
2018-10-16T21:10:31.430Z,30.97
2018-10-16T21:13:13.148Z,32.47
2018-10-16T21:15:56.134Z,29.72
2018-10-16T21:18:38.099Z,28.52
2018-10-16T21:21:20.266Z,30.12
2018-10-16T21:24:02.495Z,31.48
2018-10-16T21:26:44.732Z,27.60
2018-10-16T21:29:26.947Z,31.70
2018-10-16T21:32:10.658Z,34.10
2018-10-16T21:34:52.533Z,28.42
2018-10-16T21:37:34.830Z,29.40
2018-10-16T21:40:16.759Z,32.27
2018-10-16T21:42:59.718Z,30.85
2018-10-16T21:45:41.847Z,32.87
2018-10-16T21:48:23.739Z,31.80
2018-10-16T21:51:05.958Z,33.55
2018-10-16T21:53:48.032Z,33.33
2018-10-16T21:56:29.789Z,29.63
2018-10-16T21:59:13.017Z,30.52
2018-10-16T22:02:00.259Z,30.17
2018-10-16T22:04:42.788Z,29.92
2018-10-16T22:07:25.297Z,30.45
2018-10-16T22:10:07.556Z,30.80
2018-10-16T22:12:49.926Z,28.40
2018-10-16T22:15:32.299Z,32.87
2018-10-16T22:18:14.005Z,27.67
2018-10-16T22:20:56.176Z,29.27
2018-10-16T22:23:38.535Z,30.57
2018-10-16T22:26:20.823Z,29.12
2018-10-16T22:29:02.463Z,32.00
2018-10-16T22:31:44.526Z,31.23
2018-10-16T22:34:26.192Z,32.40
2018-10-16T22:37:08.498Z,27.93
2018-10-16T22:39:50.457Z,26.97
2018-10-16T22:42:32.434Z,32.30
2018-10-16T22:45:14.795Z,29.35
2018-10-16T22:47:57.384Z,31.25
2018-10-16T22:50:39.446Z,29.45
2018-10-16T22:53:21.438Z,30.85
2018-10-16T22:56:03.407Z,31.65
2018-10-16T22:58:45.578Z,29.95
2018-10-16T23:01:27.939Z,29.75
2018-10-16T23:04:09.992Z,31.93
2018-10-16T23:06:51.776Z,28.25
2018-10-16T23:09:33.627Z,28.75
2018-10-16T23:12:15.837Z,33.67
2018-10-16T23:14:59.715Z,30.95
2018-10-16T23:17:41.882Z,32.42
2018-10-16T23:20:24.137Z,30.40
2018-10-16T23:23:06.992Z,28.45
2018-10-16T23:25:49.570Z,26.82
2018-10-16T23:28:31.445Z,30.25
2018-10-16T23:31:14.113Z,30.25
2018-10-16T23:33:56.040Z,29.60
2018-10-16T23:36:37.935Z,31.75
2018-10-16T23:39:20.340Z,30.60
2018-10-16T23:42:02.339Z,42.38
2018-10-16T23:44:44.456Z,30.37
2018-10-16T23:47:26.272Z,31.23
2018-10-16T23:50:08.353Z,28.02
2018-10-16T23:52:50.338Z,34.18
2018-10-16T23:55:32.536Z,30.10
2018-10-16T23:58:14.256Z,28.52
